sensor_id;sensor_type;location;lat;lon;timestamp;pressure;altitude;pressure_sealevel;temperature;humidity
42125;BME280;27787;44.594;11.046;2023-07-08T00:02:24;101537.75;;;24.11;74.96
42125;BME280;27787;44.594;11.046;2023-07-08T00:05:15;101536.00;;;24.10;74.79
42125;BME280;27787;44.594;11.046;2023-07-08T00:08:00;101522.50;;;24.10;74.90
42125;BME280;27787;44.594;11.046;2023-07-08T00:10:44;101520.75;;;24.09;75.37
42125;BME280;27787;44.594;11.046;2023-07-08T00:13:28;101520.75;;;24.09;76.17
42125;BME280;27787;44.594;11.046;2023-07-08T00:16:15;101517.03;;;24.11;76.79
42125;BME280;27787;44.594;11.046;2023-07-08T00:19:01;101513.47;;;24.11;77.20
42125;BME280;27787;44.594;11.046;2023-07-08T00:21:45;101514.50;;;24.07;77.73
42125;BME280;27787;44.594;11.046;2023-07-08T00:24:30;101521.13;;;23.98;78.01
42125;BME280;27787;44.594;11.046;2023-07-08T00:27:13;101514.25;;;23.90;78.88
42125;BME280;27787;44.594;11.046;2023-07-08T00:29:58;101506.22;;;23.88;79.30
42125;BME280;27787;44.594;11.046;2023-07-08T00:32:44;101510.84;;;23.85;79.40
42125;BME280;27787;44.594;11.046;2023-07-08T00:38:27;101507.63;;;23.73;80.43
42125;BME280;27787;44.594;11.046;2023-07-08T00:41:34;101512.22;;;23.71;80.67
42125;BME280;27787;44.594;11.046;2023-07-08T00:44:19;101511.41;;;23.68;80.47
42125;BME280;27787;44.594;11.046;2023-07-08T00:47:09;101509.09;;;23.57;81.22
42125;BME280;27787;44.594;11.046;2023-07-08T00:50:00;101508.41;;;23.50;81.60
42125;BME280;27787;44.594;11.046;2023-07-08T00:52:47;101510.44;;;23.44;82.02
42125;BME280;27787;44.594;11.046;2023-07-08T00:55:32;101512.38;;;23.39;82.51
42125;BME280;27787;44.594;11.046;2023-07-08T00:58:19;101514.91;;;23.43;82.52
42125;BME280;27787;44.594;11.046;2023-07-08T01:01:06;101500.47;;;23.46;82.08
42125;BME280;27787;44.594;11.046;2023-07-08T01:03:55;101511.25;;;23.46;81.93
42125;BME280;27787;44.594;11.046;2023-07-08T01:06:48;101509.59;;;23.42;81.65
42125;BME280;27787;44.594;11.046;2023-07-08T01:09:41;101503.66;;;23.31;82.47
42125;BME280;27787;44.594;11.046;2023-07-08T01:12:40;101508.34;;;23.25;82.72
42125;BME280;27787;44.594;11.046;2023-07-08T01:15:31;101509.28;;;23.24;82.65
42125;BME280;27787;44.594;11.046;2023-07-08T01:18:18;101509.22;;;23.26;82.52
42125;BME280;27787;44.594;11.046;2023-07-08T01:24:19;101509.34;;;23.23;82.50
42125;BME280;27787;44.594;11.046;2023-07-08T01:27:05;101510.44;;;23.16;82.44
42125;BME280;27787;44.594;11.046;2023-07-08T01:29:51;101519.63;;;23.10;82.83
42125;BME280;27787;44.594;11.046;2023-07-08T01:32:43;101519.56;;;23.12;83.07
42125;BME280;27787;44.594;11.046;2023-07-08T01:35:29;101518.59;;;23.14;82.49
42125;BME280;27787;44.594;11.046;2023-07-08T01:38:14;101518.81;;;23.08;82.38
42125;BME280;27787;44.594;11.046;2023-07-08T01:43:44;101524.19;;;23.08;82.09
42125;BME280;27787;44.594;11.046;2023-07-08T01:46:28;101534.16;;;23.05;81.97
42125;BME280;27787;44.594;11.046;2023-07-08T01:49:12;101533.50;;;22.98;82.08
42125;BME280;27787;44.594;11.046;2023-07-08T01:51:57;101523.00;;;22.89;82.30
42125;BME280;27787;44.594;11.046;2023-07-08T01:54:41;101526.78;;;22.83;82.97
42125;BME280;27787;44.594;11.046;2023-07-08T01:57:25;101517.97;;;22.77;83.20
42125;BME280;27787;44.594;11.046;2023-07-08T02:00:10;101510.91;;;22.73;83.46
42125;BME280;27787;44.594;11.046;2023-07-08T02:02:58;101492.28;;;22.66;84.37
42125;BME280;27787;44.594;11.046;2023-07-08T02:05:42;101485.97;;;22.67;84.40
42125;BME280;27787;44.594;11.046;2023-07-08T02:08:27;101480.47;;;22.71;84.41
42125;BME280;27787;44.594;11.046;2023-07-08T02:11:11;101471.53;;;22.70;84.22
42125;BME280;27787;44.594;11.046;2023-07-08T02:13:55;101472.47;;;22.69;83.89
42125;BME280;27787;44.594;11.046;2023-07-08T02:16:39;101471.47;;;22.72;84.17
42125;BME280;27787;44.594;11.046;2023-07-08T02:19:24;101471.41;;;22.73;84.10
42125;BME280;27787;44.594;11.046;2023-07-08T02:22:08;101481.41;;;22.70;84.19
42125;BME280;27787;44.594;11.046;2023-07-08T02:24:53;101470.66;;;22.70;84.22
42125;BME280;27787;44.594;11.046;2023-07-08T02:27:37;101472.50;;;22.67;84.41
42125;BME280;27787;44.594;11.046;2023-07-08T02:30:22;101470.78;;;22.65;84.21
42125;BME280;27787;44.594;11.046;2023-07-08T02:33:06;101475.44;;;22.60;84.40
42125;BME280;27787;44.594;11.046;2023-07-08T02:35:52;101463.88;;;22.56;84.69
42125;BME280;27787;44.594;11.046;2023-07-08T02:38:36;101459.47;;;22.54;85.00
42125;BME280;27787;44.594;11.046;2023-07-08T02:41:20;101458.69;;;22.50;84.86
42125;BME280;27787;44.594;11.046;2023-07-08T02:44:04;101459.72;;;22.46;84.68
42125;BME280;27787;44.594;11.046;2023-07-08T02:46:49;101449.94;;;22.44;84.63
42125;BME280;27787;44.594;11.046;2023-07-08T02:49:34;101454.53;;;22.40;85.09
42125;BME280;27787;44.594;11.046;2023-07-08T02:52:18;101451.97;;;22.35;85.18
42125;BME280;27787;44.594;11.046;2023-07-08T02:55:03;101456.63;;;22.30;85.50
42125;BME280;27787;44.594;11.046;2023-07-08T02:57:47;101465.72;;;22.25;85.71
42125;BME280;27787;44.594;11.046;2023-07-08T03:00:31;101465.00;;;22.20;86.51
42125;BME280;27787;44.594;11.046;2023-07-08T03:03:15;101466.72;;;22.22;86.66
42125;BME280;27787;44.594;11.046;2023-07-08T03:06:04;101474.81;;;22.21;86.47
42125;BME280;27787;44.594;11.046;2023-07-08T03:08:51;101467.69;;;22.20;86.25
42125;BME280;27787;44.594;11.046;2023-07-08T03:11:35;101463.97;;;22.24;86.35
42125;BME280;27787;44.594;11.046;2023-07-08T03:14:20;101463.97;;;22.24;86.18
42125;BME280;27787;44.594;11.046;2023-07-08T03:17:05;101447.94;;;22.21;86.35
42125;BME280;27787;44.594;11.046;2023-07-08T03:19:49;101449.69;;;22.22;86.76
42125;BME280;27787;44.594;11.046;2023-07-08T03:22:34;101460.44;;;22.22;86.68
42125;BME280;27787;44.594;11.046;2023-07-08T03:25:17;101444.31;;;22.22;86.78
42125;BME280;27787;44.594;11.046;2023-07-08T03:28:07;101455.13;;;22.20;86.65
42125;BME280;27787;44.594;11.046;2023-07-08T03:30:52;101448.03;;;22.18;86.46
42125;BME280;27787;44.594;11.046;2023-07-08T03:33:38;101442.69;;;22.16;86.65
42125;BME280;27787;44.594;11.046;2023-07-08T03:36:22;101441.75;;;22.17;86.48
42125;BME280;27787;44.594;11.046;2023-07-08T03:39:07;101432.88;;;22.15;86.61
42125;BME280;27787;44.594;11.046;2023-07-08T03:41:52;101435.13;;;22.29;86.46
42125;BME280;27787;44.594;11.046;2023-07-08T03:44:37;101432.69;;;22.49;85.04
42125;BME280;27787;44.594;11.046;2023-07-08T03:47:20;101437.75;;;22.60;83.08
42125;BME280;27787;44.594;11.046;2023-07-08T03:50:08;101437.53;;;22.67;81.75
42125;BME280;27787;44.594;11.046;2023-07-08T03:52:58;101435.75;;;22.66;80.55
42125;BME280;27787;44.594;11.046;2023-07-08T03:55:46;101437.81;;;22.58;80.31
42125;BME280;27787;44.594;11.046;2023-07-08T03:58:30;101443.63;;;22.45;80.73
42125;BME280;27787;44.594;11.046;2023-07-08T04:01:20;101453.00;;;22.31;81.28
42125;BME280;27787;44.594;11.046;2023-07-08T04:04:05;101449.69;;;22.22;81.97
42125;BME280;27787;44.594;11.046;2023-07-08T04:06:52;101449.06;;;22.12;81.79
42125;BME280;27787;44.594;11.046;2023-07-08T04:09:37;101460.03;;;22.06;81.90
42125;BME280;27787;44.594;11.046;2023-07-08T04:12:21;101451.03;;;22.07;82.22
42125;BME280;27787;44.594;11.046;2023-07-08T04:15:07;101473.41;;;22.07;82.10
42125;BME280;27787;44.594;11.046;2023-07-08T04:17:52;101470.84;;;22.03;81.84
42125;BME280;27787;44.594;11.046;2023-07-08T04:20:37;101458.47;;;21.96;81.96
42125;BME280;27787;44.594;11.046;2023-07-08T04:23:22;101464.88;;;21.92;82.52
42125;BME280;27787;44.594;11.046;2023-07-08T04:26:08;101456.03;;;21.87;83.01
42125;BME280;27787;44.594;11.046;2023-07-08T04:28:52;101465.19;;;21.81;83.48
42125;BME280;27787;44.594;11.046;2023-07-08T04:31:36;101474.31;;;21.74;84.09
42125;BME280;27787;44.594;11.046;2023-07-08T04:34:20;101477.09;;;21.71;84.66
42125;BME280;27787;44.594;11.046;2023-07-08T04:37:04;101496.88;;;21.68;84.94
42125;BME280;27787;44.594;11.046;2023-07-08T04:39:49;101511.25;;;21.67;84.67
42125;BME280;27787;44.594;11.046;2023-07-08T04:42:34;101507.75;;;21.64;85.15
42125;BME280;27787;44.594;11.046;2023-07-08T04:45:18;101510.44;;;21.64;85.35
42125;BME280;27787;44.594;11.046;2023-07-08T04:48:04;101511.34;;;21.64;85.42
42125;BME280;27787;44.594;11.046;2023-07-08T04:50:56;101508.69;;;21.61;86.18
42125;BME280;27787;44.594;11.046;2023-07-08T04:53:41;101508.78;;;21.58;86.57
42125;BME280;27787;44.594;11.046;2023-07-08T04:56:35;101508.88;;;21.55;87.04
42125;BME280;27787;44.594;11.046;2023-07-08T04:59:24;101516.94;;;21.55;87.08
42125;BME280;27787;44.594;11.046;2023-07-08T05:02:09;101517.81;;;21.56;87.29
42125;BME280;27787;44.594;11.046;2023-07-08T05:04:53;101524.13;;;21.55;87.17
42125;BME280;27787;44.594;11.046;2023-07-08T05:07:37;101533.94;;;21.56;87.31
42125;BME280;27787;44.594;11.046;2023-07-08T05:10:21;101524.91;;;21.58;87.65
42125;BME280;27787;44.594;11.046;2023-07-08T05:13:05;101519.44;;;21.63;87.55
42125;BME280;27787;44.594;11.046;2023-07-08T05:15:49;101521.13;;;21.67;87.76
42125;BME280;27787;44.594;11.046;2023-07-08T05:18:33;101517.41;;;21.71;87.85
42125;BME280;27787;44.594;11.046;2023-07-08T05:21:19;101510.03;;;21.79;87.57
42125;BME280;27787;44.594;11.046;2023-07-08T05:24:04;101509.94;;;21.82;87.55
42125;BME280;27787;44.594;11.046;2023-07-08T05:26:49;101515.16;;;21.88;87.15
42125;BME280;27787;44.594;11.046;2023-07-08T05:29:33;101515.78;;;21.98;87.41
42125;BME280;27787;44.594;11.046;2023-07-08T05:32:18;101519.19;;;22.06;87.07
42125;BME280;27787;44.594;11.046;2023-07-08T05:35:02;101503.72;;;22.14;87.24
42125;BME280;27787;44.594;11.046;2023-07-08T05:37:46;101494.13;;;22.35;87.46
42125;BME280;27787;44.594;11.046;2023-07-08T05:40:31;101489.59;;;22.66;86.10
42125;BME280;27787;44.594;11.046;2023-07-08T05:43:16;101478.84;;;22.94;85.29
42125;BME280;27787;44.594;11.046;2023-07-08T05:46:00;101478.06;;;23.19;82.96
42125;BME280;27787;44.594;11.046;2023-07-08T05:48:44;101472.78;;;23.41;81.25
42125;BME280;27787;44.594;11.046;2023-07-08T05:51:28;101488.38;;;23.59;80.28
42125;BME280;27787;44.594;11.046;2023-07-08T05:54:13;101497.13;;;23.66;79.02
42125;BME280;27787;44.594;11.046;2023-07-08T05:56:57;101499.75;;;23.67;79.25
42125;BME280;27787;44.594;11.046;2023-07-08T05:59:41;101495.28;;;23.66;79.70
42125;BME280;27787;44.594;11.046;2023-07-08T06:02:26;101495.91;;;23.74;79.61
42125;BME280;27787;44.594;11.046;2023-07-08T06:05:11;101491.09;;;23.82;78.83
42125;BME280;27787;44.594;11.046;2023-07-08T06:07:55;101471.22;;;23.87;78.35
42125;BME280;27787;44.594;11.046;2023-07-08T06:10:43;101460.19;;;23.93;78.59
42125;BME280;27787;44.594;11.046;2023-07-08T06:13:28;101451.94;;;23.97;78.23
42125;BME280;27787;44.594;11.046;2023-07-08T06:16:12;101448.44;;;23.94;78.71
42125;BME280;27787;44.594;11.046;2023-07-08T06:18:56;101444.06;;;23.91;78.86
42125;BME280;27787;44.594;11.046;2023-07-08T06:21:41;101438.97;;;23.83;79.33
42125;BME280;27787;44.594;11.046;2023-07-08T06:24:25;101434.59;;;23.79;80.27
42125;BME280;27787;44.594;11.046;2023-07-08T06:27:09;101449.03;;;23.78;81.10
42125;BME280;27787;44.594;11.046;2023-07-08T06:29:53;101460.63;;;23.80;81.08
42125;BME280;27787;44.594;11.046;2023-07-08T06:32:38;101477.75;;;23.79;80.49
42125;BME280;27787;44.594;11.046;2023-07-08T06:35:22;101488.47;;;23.81;79.86
42125;BME280;27787;44.594;11.046;2023-07-08T06:38:07;101494.59;;;23.86;79.76
42125;BME280;27787;44.594;11.046;2023-07-08T06:40:52;101496.06;;;23.95;79.98
42125;BME280;27787;44.594;11.046;2023-07-08T06:43:36;101487.69;;;24.02;79.57
42125;BME280;27787;44.594;11.046;2023-07-08T06:46:34;101490.13;;;24.10;79.43
42125;BME280;27787;44.594;11.046;2023-07-08T06:49:18;101486.50;;;24.11;80.51
42125;BME280;27787;44.594;11.046;2023-07-08T06:52:02;101494.53;;;24.12;81.26
42125;BME280;27787;44.594;11.046;2023-07-08T06:54:46;101500.06;;;24.08;81.37
42125;BME280;27787;44.594;11.046;2023-07-08T06:57:31;101494.97;;;24.00;81.05
42125;BME280;27787;44.594;11.046;2023-07-08T07:00:15;101480.72;;;23.97;81.41
42125;BME280;27787;44.594;11.046;2023-07-08T07:03:00;101463.75;;;23.93;81.23
42125;BME280;27787;44.594;11.046;2023-07-08T07:05:45;101448.44;;;23.94;80.85
42125;BME280;27787;44.594;11.046;2023-07-08T07:08:29;101442.97;;;23.97;80.69
42125;BME280;27787;44.594;11.046;2023-07-08T07:11:14;101431.13;;;24.01;79.72
42125;BME280;27787;44.594;11.046;2023-07-08T07:13:58;101424.59;;;24.06;78.87
42125;BME280;27787;44.594;11.046;2023-07-08T07:16:42;101421.69;;;24.12;78.72
42125;BME280;27787;44.594;11.046;2023-07-08T07:19:27;101433.28;;;24.15;79.29
42125;BME280;27787;44.594;11.046;2023-07-08T07:22:11;101443.97;;;24.18;79.55
42125;BME280;27787;44.594;11.046;2023-07-08T07:24:55;101447.38;;;24.23;79.21
42125;BME280;27787;44.594;11.046;2023-07-08T07:27:40;101449.88;;;24.27;78.60
42125;BME280;27787;44.594;11.046;2023-07-08T07:30:24;101453.31;;;24.32;77.39
42125;BME280;27787;44.594;11.046;2023-07-08T07:33:08;101453.09;;;24.38;75.70
42125;BME280;27787;44.594;11.046;2023-07-08T07:35:52;101465.50;;;24.42;75.11
42125;BME280;27787;44.594;11.046;2023-07-08T07:38:37;101467.16;;;24.47;75.74
42125;BME280;27787;44.594;11.046;2023-07-08T07:41:21;101458.88;;;24.51;75.91
42125;BME280;27787;44.594;11.046;2023-07-08T07:44:06;101456.94;;;24.55;76.01
42125;BME280;27787;44.594;11.046;2023-07-08T07:46:52;101450.53;;;24.57;75.07
42125;BME280;27787;44.594;11.046;2023-07-08T07:49:37;101453.00;;;24.63;74.54
42125;BME280;27787;44.594;11.046;2023-07-08T07:52:21;101442.69;;;24.73;73.92
42125;BME280;27787;44.594;11.046;2023-07-08T07:55:08;101439.63;;;24.82;73.32
42125;BME280;27787;44.594;11.046;2023-07-08T07:57:52;101433.09;;;24.88;72.42
42125;BME280;27787;44.594;11.046;2023-07-08T08:00:40;101431.16;;;24.91;71.39
42125;BME280;27787;44.594;11.046;2023-07-08T08:03:24;101430.88;;;24.97;71.88
42125;BME280;27787;44.594;11.046;2023-07-08T08:06:08;101430.59;;;25.05;72.14
42125;BME280;27787;44.594;11.046;2023-07-08T08:08:52;101450.19;;;25.10;71.50
42125;BME280;27787;44.594;11.046;2023-07-08T08:11:37;101467.03;;;25.17;70.97
42125;BME280;27787;44.594;11.046;2023-07-08T08:14:22;101460.41;;;25.24;70.36
42125;BME280;27787;44.594;11.046;2023-07-08T08:17:06;101464.69;;;25.29;69.46
42125;BME280;27787;44.594;11.046;2023-07-08T08:19:50;101475.31;;;25.34;68.84
42125;BME280;27787;44.594;11.046;2023-07-08T08:22:34;101485.09;;;25.37;68.54
42125;BME280;27787;44.594;11.046;2023-07-08T08:25:20;101476.13;;;25.36;67.55
42125;BME280;27787;44.594;11.046;2023-07-08T08:28:05;101477.75;;;25.40;68.64
42125;BME280;27787;44.594;11.046;2023-07-08T08:30:49;101481.28;;;25.42;68.16
42125;BME280;27787;44.594;11.046;2023-07-08T08:33:34;101481.06;;;25.47;67.24
42125;BME280;27787;44.594;11.046;2023-07-08T08:36:18;101473.63;;;25.52;65.87
42125;BME280;27787;44.594;11.046;2023-07-08T08:39:04;101485.94;;;25.59;65.01
42125;BME280;27787;44.594;11.046;2023-07-08T08:41:50;101486.47;;;25.69;64.17
42125;BME280;27787;44.594;11.046;2023-07-08T08:44:37;101482.34;;;25.80;63.87
42125;BME280;27787;44.594;11.046;2023-07-08T08:47:36;101491.72;;;25.92;64.32
42125;BME280;27787;44.594;11.046;2023-07-08T08:53:13;101498.59;;;25.99;61.10
42125;BME280;27787;44.594;11.046;2023-07-08T08:56:18;101495.81;;;26.01;60.77
42125;BME280;27787;44.594;11.046;2023-07-08T08:59:44;101498.47;;;26.02;62.32
42125;BME280;27787;44.594;11.046;2023-07-08T09:05:17;101496.72;;;26.01;63.17
42125;BME280;27787;44.594;11.046;2023-07-08T09:08:04;101511.91;;;26.04;62.42
42125;BME280;27787;44.594;11.046;2023-07-08T09:11:00;101507.41;;;26.04;59.27
42125;BME280;27787;44.594;11.046;2023-07-08T09:13:46;101511.59;;;26.11;58.26
42125;BME280;27787;44.594;11.046;2023-07-08T09:19:32;101507.53;;;26.22;57.79
42125;BME280;27787;44.594;11.046;2023-07-08T09:22:39;101510.06;;;26.25;58.96
42125;BME280;27787;44.594;11.046;2023-07-08T09:25:40;101510.31;;;26.20;58.30
42125;BME280;27787;44.594;11.046;2023-07-08T09:28:36;101509.44;;;26.20;57.59
42125;BME280;27787;44.594;11.046;2023-07-08T09:31:22;101508.47;;;26.21;56.72
42125;BME280;27787;44.594;11.046;2023-07-08T09:34:10;101507.44;;;26.23;56.22
42125;BME280;27787;44.594;11.046;2023-07-08T09:36:55;101501.72;;;26.29;56.40
42125;BME280;27787;44.594;11.046;2023-07-08T09:39:39;101513.25;;;26.34;55.71
42125;BME280;27787;44.594;11.046;2023-07-08T09:42:31;101502.22;;;26.39;55.64
42125;BME280;27787;44.594;11.046;2023-07-08T09:45:22;101501.06;;;26.44;56.02
42125;BME280;27787;44.594;11.046;2023-07-08T09:48:18;101517.97;;;26.50;56.22
42125;BME280;27787;44.594;11.046;2023-07-08T09:51:05;101502.53;;;26.52;55.09
42125;BME280;27787;44.594;11.046;2023-07-08T09:53:55;101507.72;;;26.56;53.19
42125;BME280;27787;44.594;11.046;2023-07-08T09:56:43;101502.09;;;26.61;52.30
42125;BME280;27787;44.594;11.046;2023-07-08T09:59:31;101493.81;;;26.64;51.43
42125;BME280;27787;44.594;11.046;2023-07-08T10:05:28;101484.94;;;26.79;53.63
42125;BME280;27787;44.594;11.046;2023-07-08T10:08:19;101485.81;;;26.80;51.70
42125;BME280;27787;44.594;11.046;2023-07-08T10:11:19;101484.00;;;26.80;50.74
42125;BME280;27787;44.594;11.046;2023-07-08T10:14:17;101481.97;;;26.85;50.28
42125;BME280;27787;44.594;11.046;2023-07-08T10:17:13;101481.81;;;26.88;49.48
42125;BME280;27787;44.594;11.046;2023-07-08T10:19:58;101473.44;;;26.93;49.70
42125;BME280;27787;44.594;11.046;2023-07-08T10:22:53;101473.16;;;26.99;49.58
42125;BME280;27787;44.594;11.046;2023-07-08T10:31:52;101461.84;;;27.08;50.58
42125;BME280;27787;44.594;11.046;2023-07-08T10:41:36;101465.78;;;27.20;48.48
42125;BME280;27787;44.594;11.046;2023-07-08T10:56:20;101449.28;;;27.42;47.60
42125;BME280;27787;44.594;11.046;2023-07-08T10:59:13;101442.13;;;27.41;47.32
42125;BME280;27787;44.594;11.046;2023-07-08T11:05:43;101438.06;;;27.49;47.75
42125;BME280;27787;44.594;11.046;2023-07-08T11:08:35;101440.53;;;27.54;48.30
42125;BME280;27787;44.594;11.046;2023-07-08T11:14:24;101435.63;;;27.60;47.27
42125;BME280;27787;44.594;11.046;2023-07-08T11:17:26;101429.06;;;27.66;46.47
42125;BME280;27787;44.594;11.046;2023-07-08T11:20:21;101424.16;;;27.73;46.13
42125;BME280;27787;44.594;11.046;2023-07-08T11:23:33;101426.81;;;27.74;46.33
42125;BME280;27787;44.594;11.046;2023-07-08T11:26:42;101424.03;;;27.76;46.44
42125;BME280;27787;44.594;11.046;2023-07-08T11:29:52;101412.75;;;27.83;47.19
42125;BME280;27787;44.594;11.046;2023-07-08T11:32:39;101417.06;;;27.87;46.65
42125;BME280;27787;44.594;11.046;2023-07-08T11:35:45;101413.91;;;27.95;46.83
42125;BME280;27787;44.594;11.046;2023-07-08T11:38:32;101407.09;;;28.04;45.83
42125;BME280;27787;44.594;11.046;2023-07-08T11:41:23;101411.56;;;28.05;46.47
42125;BME280;27787;44.594;11.046;2023-07-08T11:44:11;101400.63;;;28.06;44.59
42125;BME280;27787;44.594;11.046;2023-07-08T11:46:57;101397.72;;;28.09;44.01
42125;BME280;27787;44.594;11.046;2023-07-08T11:49:41;101396.69;;;28.12;45.02
42125;BME280;27787;44.594;11.046;2023-07-08T11:52:26;101396.44;;;28.16;45.18
42125;BME280;27787;44.594;11.046;2023-07-08T11:55:21;101394.59;;;28.17;45.82
42125;BME280;27787;44.594;11.046;2023-07-08T11:58:06;101385.41;;;28.19;45.88
42125;BME280;27787;44.594;11.046;2023-07-08T12:00:57;101386.97;;;28.24;45.07
42125;BME280;27787;44.594;11.046;2023-07-08T12:03:51;101382.13;;;28.30;43.70
42125;BME280;27787;44.594;11.046;2023-07-08T12:12:16;101384.75;;;28.47;42.82
42125;BME280;27787;44.594;11.046;2023-07-08T12:18:01;101384.22;;;28.57;43.36
42125;BME280;27787;44.594;11.046;2023-07-08T12:20:58;101384.13;;;28.58;42.70
42125;BME280;27787;44.594;11.046;2023-07-08T12:23:46;101378.69;;;28.58;42.15
42125;BME280;27787;44.594;11.046;2023-07-08T12:26:33;101378.78;;;28.57;42.54
42125;BME280;27787;44.594;11.046;2023-07-08T12:29:17;101383.84;;;28.63;43.26
42125;BME280;27787;44.594;11.046;2023-07-08T12:32:02;101378.94;;;28.69;43.94
42125;BME280;27787;44.594;11.046;2023-07-08T12:34:46;101382.06;;;28.77;44.18
42125;BME280;27787;44.594;11.046;2023-07-08T12:37:31;101381.03;;;28.80;43.06
42125;BME280;27787;44.594;11.046;2023-07-08T12:40:15;101382.59;;;28.84;42.32
42125;BME280;27787;44.594;11.046;2023-07-08T12:42:59;101379.47;;;28.92;42.22
42125;BME280;27787;44.594;11.046;2023-07-08T12:45:44;101380.75;;;29.00;41.58
42125;BME280;27787;44.594;11.046;2023-07-08T12:48:33;101374.97;;;29.06;42.35
42125;BME280;27787;44.594;11.046;2023-07-08T12:51:23;101375.94;;;29.05;41.73
42125;BME280;27787;44.594;11.046;2023-07-08T12:54:10;101371.84;;;29.13;41.60
42125;BME280;27787;44.594;11.046;2023-07-08T12:56:54;101373.34;;;29.18;42.03
42125;BME280;27787;44.594;11.046;2023-07-08T12:59:38;101371.97;;;29.25;41.33
42125;BME280;27787;44.594;11.046;2023-07-08T13:02:25;101370.56;;;29.34;40.63
42125;BME280;27787;44.594;11.046;2023-07-08T13:05:11;101369.91;;;29.45;40.78
42125;BME280;27787;44.594;11.046;2023-07-08T13:07:56;101360.41;;;29.52;40.55
42125;BME280;27787;44.594;11.046;2023-07-08T13:10:40;101364.59;;;29.57;39.97
42125;BME280;27787;44.594;11.046;2023-07-08T13:13:32;101365.19;;;29.62;39.61
42125;BME280;27787;44.594;11.046;2023-07-08T13:16:18;101366.56;;;29.70;40.43
42125;BME280;27787;44.594;11.046;2023-07-08T13:19:03;101368.88;;;29.76;40.13
42125;BME280;27787;44.594;11.046;2023-07-08T13:21:47;101361.22;;;29.82;39.84
42125;BME280;27787;44.594;11.046;2023-07-08T13:24:33;101351.56;;;29.91;40.50
42125;BME280;27787;44.594;11.046;2023-07-08T13:27:22;101353.13;;;29.95;40.14
42125;BME280;27787;44.594;11.046;2023-07-08T13:30:27;101354.38;;;30.04;40.32
42125;BME280;27787;44.594;11.046;2023-07-08T13:33:16;101359.25;;;30.13;40.19
42125;BME280;27787;44.594;11.046;2023-07-08T13:36:03;101353.41;;;30.19;39.42
42125;BME280;27787;44.594;11.046;2023-07-08T13:38:47;101359.13;;;30.29;39.31
42125;BME280;27787;44.594;11.046;2023-07-08T13:41:32;101359.41;;;30.38;38.74
42125;BME280;27787;44.594;11.046;2023-07-08T13:44:16;101358.09;;;30.44;37.58
42125;BME280;27787;44.594;11.046;2023-07-08T13:47:00;101355.19;;;30.47;38.35
42125;BME280;27787;44.594;11.046;2023-07-08T13:49:48;101352.28;;;30.50;38.25
42125;BME280;27787;44.594;11.046;2023-07-08T13:52:35;101342.50;;;30.60;37.61
42125;BME280;27787;44.594;11.046;2023-07-08T13:55:20;101340.38;;;30.65;37.68
42125;BME280;27787;44.594;11.046;2023-07-08T13:58:04;101340.72;;;30.73;37.97
42125;BME280;27787;44.594;11.046;2023-07-08T14:00:50;101341.38;;;30.77;36.39
42125;BME280;27787;44.594;11.046;2023-07-08T14:03:34;101347.59;;;30.79;35.69
42125;BME280;27787;44.594;11.046;2023-07-08T14:06:23;101348.25;;;30.82;35.70
42125;BME280;27787;44.594;11.046;2023-07-08T14:09:12;101342.94;;;30.94;36.24
42125;BME280;27787;44.594;11.046;2023-07-08T14:11:56;101345.81;;;31.05;35.89
42125;BME280;27787;44.594;11.046;2023-07-08T14:14:41;101343.44;;;31.13;36.07
42125;BME280;27787;44.594;11.046;2023-07-08T14:17:26;101334.84;;;31.19;36.44
42125;BME280;27787;44.594;11.046;2023-07-08T14:20:15;101336.78;;;31.17;34.96
42125;BME280;27787;44.594;11.046;2023-07-08T14:23:00;101332.78;;;31.23;34.97
42125;BME280;27787;44.594;11.046;2023-07-08T14:25:43;101332.25;;;31.30;34.54
42125;BME280;27787;44.594;11.046;2023-07-08T14:28:27;101325.81;;;31.44;34.55
42125;BME280;27787;44.594;11.046;2023-07-08T14:31:14;101327.66;;;31.56;33.38
42125;BME280;27787;44.594;11.046;2023-07-08T14:34:05;101324.81;;;31.58;34.03
42125;BME280;27787;44.594;11.046;2023-07-08T14:36:50;101321.00;;;31.60;34.44
42125;BME280;27787;44.594;11.046;2023-07-08T14:39:35;101324.16;;;31.67;34.86
42125;BME280;27787;44.594;11.046;2023-07-08T14:42:20;101319.22;;;31.72;35.77
42125;BME280;27787;44.594;11.046;2023-07-08T14:45:04;101316.09;;;31.78;36.38
42125;BME280;27787;44.594;11.046;2023-07-08T14:47:48;101311.56;;;31.90;36.94
42125;BME280;27787;44.594;11.046;2023-07-08T14:50:32;101309.28;;;31.96;37.56
42125;BME280;27787;44.594;11.046;2023-07-08T14:53:17;101308.63;;;32.06;37.63
42125;BME280;27787;44.594;11.046;2023-07-08T14:56:14;101301.81;;;32.11;37.98
42125;BME280;27787;44.594;11.046;2023-07-08T14:58:59;101303.22;;;32.17;37.50
42125;BME280;27787;44.594;11.046;2023-07-08T15:01:44;101314.16;;;32.30;36.78
42125;BME280;27787;44.594;11.046;2023-07-08T15:04:29;101299.38;;;32.32;36.70
42125;BME280;27787;44.594;11.046;2023-07-08T15:07:12;101306.47;;;32.35;37.20
42125;BME280;27787;44.594;11.046;2023-07-08T15:09:57;101297.16;;;32.37;36.71
42125;BME280;27787;44.594;11.046;2023-07-08T15:12:41;101286.97;;;32.39;36.05
42125;BME280;27787;44.594;11.046;2023-07-08T15:15:31;101298.44;;;32.44;35.88
42125;BME280;27787;44.594;11.046;2023-07-08T15:18:18;101286.47;;;32.58;36.25
42125;BME280;27787;44.594;11.046;2023-07-08T15:21:03;101287.84;;;32.64;35.99
42125;BME280;27787;44.594;11.046;2023-07-08T15:23:48;101286.50;;;32.69;35.69